Melville, Canada
Current Conditions -  °F | °C
As of 7:00 AM on Saturday 25 Oct 2014 (Local Time) from CYQV Reporting Station
Clear Clear  
Wind Chill: 27°   Ceiling: Unl
Heat Index: 36°   Visibility: 9mi
Dew Point: 28°   Wind: 13mph
Humidity: 75%   Direction: 230°SW
Pressure: 30"   Gusts: NA
Location:  50.93°N, 102.8°W
Report Text: CYQV 251300Z AUTO 23011KT 9SM CLR 02/M02 A3000 RMK SLP178
Loading
Personal Weather Stations






























Interactive Weather Map
Tropical Storm Tracking
New forecast layout! Learn more

10-Day Weather Forecast

Advertisements
Track Severe Weather on mobile